Hasse, Texas
Current Conditions -  °F | °C
As of 11:15 AM on Sunday 21 Dec 2014 (Local Time) from KMKN Reporting Station
Overcast Overcast  
Wind Chill: 50°   Ceiling: 1400
Heat Index: 50°   Visibility: 10mi
Dew Point: 46°   Wind: 16mph
Humidity: 84%   Direction: 200°SSW
Pressure: 30.02"   Gusts: NA
Location:  31.9079°N, 98.6578°W
Report Text: KMKN 211715Z AUTO 20014KT 10SM OVC014 10/08 A3002 RMK AO2 T01020076
Loading
Personal Weather Stations






























Interactive Weather Map New forecast layout! Learn more

10-Day Weather Forecast

Advertisements
Track Severe Weather on mobile